Consulta los datos en tiempo real de la estación municipal de Seva
| Hora UTC | 08:20 |
|---|---|
| Temperatura | 11.4 ºC |
| Suelo 15 cm | 17.6 ºC |
| Humedad | 82.8 % |
| Presión | 1014.0 hPa |
| Pluja | 0.0 mm |
| Velocidad viento | 7.1 km/h |
| Dirección viento | NNW |
| Radiación solar | 592.9 W/m² |
| Temperatura (ºC) | Humedad (%) | Presión (hPa) | Velocidad viento (km/h) | Precipitación (mm) | Radiación solar (W/m²) | ||||||||||||||
|---|---|---|---|---|---|---|---|---|---|---|---|---|---|---|---|---|---|---|---|
| Hora UTC | Aire | Suelo 15 cm | Humedad | Presión | Vel. | Dir. | Vel. Max | Dir. | Intent. máx 5 min. | Rad. Sol. | |||||||||
| 00:05 | 7.4 | 5.8 | 98.5 | 1012.9 | 5.0 | SE | 5.0 | SE | 0.0 | 0.1 | |||||||||
| 00:10 | 7.4 | 6.0 | 98.6 | 1012.9 | 6.3 | ESE | 8.8 | ESE | 0.0 | 0.1 | |||||||||
| 00:15 | 7.8 | 6.2 | 98.9 | 1012.9 | 7.7 | SE | 11.3 | SE | 0.0 | 0.0 | |||||||||
| 00:20 | 7.9 | 6.4 | 98.5 | 1012.9 | 7.2 | SE | 11.6 | SE | 0.0 | 0.0 | |||||||||
| 00:25 | 7.8 | 6.3 | 98.0 | 1012.8 | 4.9 | SE | 9.2 | SE | 0.0 | 0.1 | |||||||||
| 00:30 | 7.8 | 6.2 | 98.1 | 1012.8 | 4.6 | SE | 7.4 | ESE | 0.0 | 0.0 | |||||||||
| 00:35 | 7.8 | 6.2 | 98.3 | 1012.8 | 4.2 | SSW | 8.5 | WSW | 0.0 | 0.1 | |||||||||
| 00:40 | 8.2 | 6.4 | 98.3 | 1012.8 | 5.4 | SSE | 11.6 | SE | 0.0 | 0.0 | |||||||||
| 00:45 | 8.2 | 6.6 | 97.2 | 1012.8 | 3.8 | SSE | 6.0 | SE | 0.0 | 0.1 | |||||||||
| 00:50 | 8.2 | 6.5 | 96.6 | 1012.7 | 4.3 | ESE | 13.4 | ESE | 0.0 | 0.0 | |||||||||
| 00:55 | 8.3 | 6.5 | 95.1 | 1012.7 | 2.2 | E | 6.0 | E | 0.0 | 0.1 | |||||||||
| 01:00 | 8.1 | 6.3 | 94.8 | 1012.7 | 2.1 | S | 10.6 | SW | 0.0 | 0.1 | |||||||||
| 01:05 | 8.4 | 6.3 | 94.0 | 1012.6 | 3.0 | W | 12.0 | WSW | 0.0 | 0.1 | |||||||||
| 01:10 | 8.3 | 6.2 | 93.2 | 1012.7 | 1.2 | NNE | 7.1 | NNE | 0.0 | 0.1 | |||||||||
| 01:15 | 8.1 | 6.0 | 94.2 | 1012.7 | 4.0 | E | 9.2 | ESE | 0.0 | 0.1 | |||||||||
| 01:20 | 8.0 | 6.0 | 95.1 | 1012.6 | 5.2 | E | 9.2 | ESE | 0.0 | 0.1 | |||||||||
| 01:25 | 7.9 | 5.9 | 95.2 | 1012.6 | 4.8 | SE | 10.6 | ESE | 0.0 | 0.1 | |||||||||
| 01:30 | 7.7 | 5.8 | 95.4 | 1012.6 | 2.3 | SE | 5.6 | ESE | 0.0 | 0.1 | |||||||||
| 01:35 | 7.6 | 5.6 | 95.9 | 1012.6 | 2.3 | SSE | 5.3 | SSE | 0.0 | 0.1 | |||||||||
| 01:40 | 7.4 | 5.5 | 96.3 | 1012.6 | 5.2 | ESE | 7.8 | ESE | 0.0 | 0.0 | |||||||||
| 01:45 | 7.3 | 5.5 | 96.8 | 1012.5 | 3.5 | SE | 4.6 | ESE | 0.0 | 0.1 | |||||||||
| 01:50 | 7.2 | 5.5 | 97.1 | 1012.6 | 3.1 | SE | 5.3 | SE | 0.0 | 0.1 | |||||||||
| 01:55 | 7.5 | 5.6 | 97.8 | 1012.5 | 5.3 | SSW | 10.2 | SSW | 0.0 | 0.1 | |||||||||
| 02:00 | 7.5 | 5.6 | 97.0 | 1012.5 | 3.1 | S | 8.8 | SSE | 0.0 | 0.1 | |||||||||
| 02:05 | 7.5 | 5.7 | 96.9 | 1012.5 | 4.2 | SW | 8.5 | SSW | 0.0 | 0.0 | |||||||||
| 02:10 | 7.4 | 5.5 | 96.6 | 1012.5 | 2.2 | SSW | 4.2 | SW | 0.0 | 0.1 | |||||||||
| 02:15 | 7.3 | 5.2 | 96.7 | 1012.5 | 4.1 | SSW | 8.8 | SSW | 0.0 | 0.1 | |||||||||
| 02:20 | 7.1 | 5.2 | 96.6 | 1012.5 | 2.0 | WSW | 7.8 | WNW | 0.0 | 0.1 | |||||||||
| 02:25 | 7.0 | 5.0 | 96.7 | 1012.6 | 1.0 | ESE | 3.5 | SE | 0.0 | 0.1 | |||||||||
| 02:30 | 7.0 | 4.9 | 96.9 | 1012.7 | 1.5 | E | 4.2 | E | 0.0 | 0.1 | |||||||||
| 02:35 | 6.9 | 4.9 | 97.3 | 1012.7 | 1.5 | S | 4.9 | SW | 0.0 | 0.1 | |||||||||
| 02:40 | 6.9 | 5.0 | 97.2 | 1012.7 | 0.4 | ENE | 2.5 | ESE | 0.0 | 0.1 | |||||||||
| 02:45 | 6.7 | 4.9 | 97.2 | 1012.7 | 2.8 | E | 5.6 | E | 0.0 | 0.1 | |||||||||
| 02:50 | 6.5 | 4.7 | 97.2 | 1012.7 | 3.8 | E | 6.0 | E | 0.0 | 0.1 | |||||||||
| 02:55 | 6.4 | 4.6 | 97.5 | 1012.6 | 5.4 | ENE | 7.1 | ENE | 0.0 | 0.1 | |||||||||
| 03:00 | 6.2 | 4.5 | 97.6 | 1012.6 | 6.7 | E | 8.1 | E | 0.0 | 0.0 | |||||||||
| 03:05 | 6.2 | 4.4 | 97.8 | 1012.6 | 5.3 | E | 8.1 | E | 0.0 | 0.1 | |||||||||
| 03:10 | 6.2 | 4.4 | 98.0 | 1012.5 | 6.2 | E | 9.2 | E | 0.0 | 0.1 | |||||||||
| 03:15 | 6.0 | 4.3 | 97.8 | 1012.5 | 4.2 | E | 6.4 | E | 0.0 | 0.1 | |||||||||
| 03:20 | 5.9 | 4.2 | 98.0 | 1012.5 | 4.4 | E | 6.0 | E | 0.0 | 0.1 | |||||||||
| 03:25 | 5.9 | 4.1 | 98.2 | 1012.5 | 4.5 | E | 6.4 | ENE | 0.0 | 0.1 | |||||||||
| 03:30 | 5.8 | 4.0 | 98.2 | 1012.5 | 5.5 | E | 7.1 | E | 0.0 | 0.1 | |||||||||
| 03:35 | 5.9 | 4.0 | 98.5 | 1012.5 | 4.7 | ESE | 7.1 | E | 0.0 | 0.0 | |||||||||
| 03:40 | 6.0 | 4.0 | 98.5 | 1012.6 | 3.5 | ESE | 4.6 | ESE | 0.0 | 0.0 | |||||||||
| 03:45 | 5.8 | 3.8 | 98.4 | 1012.6 | 2.5 | E | 3.5 | ESE | 0.0 | 0.0 | |||||||||
| 03:50 | 5.7 | 3.8 | 98.4 | 1012.5 | 3.9 | ESE | 4.9 | ESE | 0.0 | 0.0 | |||||||||
| 03:55 | 5.6 | 3.8 | 98.5 | 1012.6 | 3.3 | ESE | 4.2 | ESE | 0.0 | 0.1 | |||||||||
| 04:00 | 5.6 | 3.7 | 98.7 | 1012.6 | 2.5 | ESE | 3.2 | ESE | 0.0 | 0.1 | |||||||||
| 04:05 | 5.8 | 3.7 | 99.0 | 1012.7 | 3.0 | SSE | 5.3 | SSE | 0.0 | 0.1 | |||||||||
| 04:10 | 6.1 | 3.9 | 99.2 | 1012.7 | 4.2 | SSE | 7.4 | SSE | 0.0 | 0.1 | |||||||||
| 04:15 | 6.2 | 4.1 | 99.1 | 1012.7 | 2.8 | SE | 4.9 | SSE | 0.0 | 0.1 | |||||||||
| 04:20 | 6.1 | 4.1 | 98.9 | 1012.6 | 3.7 | SE | 6.7 | SSE | 0.0 | 0.1 | |||||||||
| 04:25 | 5.8 | 3.9 | 98.7 | 1012.7 | 3.8 | SSE | 6.4 | SE | 0.0 | 0.2 | |||||||||
| 04:30 | 5.8 | 3.8 | 99.0 | 1012.8 | 4.2 | SSE | 6.7 | S | 0.0 | 0.7 | |||||||||
| 04:35 | 6.0 | 3.9 | 99.1 | 1012.9 | 2.7 | SSE | 4.6 | SE | 0.0 | 1.5 | |||||||||
| 04:40 | 6.0 | 3.9 | 99.2 | 1012.9 | 4.0 | SSE | 7.2 | SSE | 0.0 | 2.8 | |||||||||
| 04:45 | 6.0 | 4.0 | 99.2 | 1012.9 | 3.0 | SSE | 4.9 | SE | 0.0 | 4.4 | |||||||||
| 04:50 | 6.0 | 4.1 | 99.2 | 1012.9 | 3.8 | SSE | 6.4 | S | 0.0 | 6.4 | |||||||||
| 04:55 | 6.1 | 4.2 | 99.2 | 1012.9 | 3.9 | S | 6.7 | S | 0.0 | 8.6 | |||||||||
| 05:00 | 6.0 | 4.0 | 99.2 | 1012.9 | 3.9 | SSE | 7.1 | SSE | 0.0 | 11.2 | |||||||||
| 05:05 | 6.1 | 4.0 | 99.3 | 1013.0 | 5.6 | SSE | 8.5 | S | 0.0 | 13.7 | |||||||||
| 05:10 | 6.1 | 4.3 | 99.3 | 1013.0 | 5.2 | SSE | 8.5 | SSE | 0.0 | 16.0 | |||||||||
| 05:15 | 6.2 | 4.5 | 99.1 | 1013.0 | 4.1 | SSE | 7.4 | S | 0.0 | 18.3 | |||||||||
| 05:20 | 6.2 | 4.6 | 99.1 | 1013.1 | 4.1 | S | 8.1 | SSE | 0.0 | 20.6 | |||||||||
| 05:25 | 6.2 | 4.5 | 99.0 | 1013.2 | 2.9 | SSE | 6.4 | SSE | 0.0 | 27.8 | |||||||||
| 05:30 | 6.3 | 4.5 | 99.0 | 1013.2 | 2.2 | SSE | 5.6 | SSW | 0.0 | 96.9 | |||||||||
| 05:35 | 6.4 | 4.6 | 99.0 | 1013.3 | 2.7 | SSW | 6.4 | SSW | 0.0 | 128.7 | |||||||||
| 05:40 | 6.6 | 4.8 | 99.1 | 1013.3 | 3.4 | SSW | 6.7 | SSW | 0.0 | 142.2 | |||||||||
| 05:45 | 6.9 | 4.9 | 98.9 | 1013.4 | 0.2 | SSW | 2.1 | WSW | 0.0 | 156.0 | |||||||||
| 05:50 | 7.7 | 5.0 | 98.6 | 1013.4 | 1.3 | SSW | 4.2 | SW | 0.0 | 169.9 | |||||||||
| 05:55 | 7.9 | 5.9 | 97.3 | 1013.5 | 1.7 | SSW | 3.9 | SSW | 0.0 | 183.0 | |||||||||
| 06:00 | 8.3 | 7.3 | 96.4 | 1013.5 | 1.4 | SSW | 6.0 | S | 0.0 | 196.4 | |||||||||
| 06:05 | 8.8 | 8.1 | 95.7 | 1013.6 | 1.3 | SSW | 4.2 | S | 0.0 | 209.0 | |||||||||
| 06:10 | 8.9 | 8.5 | 94.6 | 1013.6 | 1.3 | S | 3.2 | S | 0.0 | 221.9 | |||||||||
| 06:15 | 9.2 | 9.5 | 93.7 | 1013.6 | 0.7 | SSW | 2.8 | S | 0.0 | 220.1 | |||||||||
| 06:20 | 9.6 | 10.3 | 92.5 | 1013.6 | 0.4 | NW | 2.1 | NW | 0.0 | 250.4 | |||||||||
| 06:25 | 9.6 | 11.2 | 91.0 | 1013.6 | 0.6 | SW | 2.1 | SW | 0.0 | 264.2 | |||||||||
| 06:30 | 9.8 | 11.6 | 89.9 | 1013.7 | 1.5 | SW | 5.3 | SW | 0.0 | 278.2 | |||||||||
| 06:35 | 10.0 | 12.2 | 88.6 | 1013.7 | 2.5 | SW | 5.3 | SSW | 0.0 | 292.1 | |||||||||
| 06:40 | 10.1 | 12.5 | 87.8 | 1013.7 | 2.4 | SW | 6.0 | WNW | 0.0 | 307.5 | |||||||||
| 06:45 | 10.1 | 13.1 | 86.3 | 1013.6 | 3.0 | WNW | 4.6 | WSW | 0.0 | 321.2 | |||||||||
| 06:50 | 10.2 | 13.4 | 86.2 | 1013.6 | 4.9 | WNW | 8.8 | WNW | 0.0 | 335.9 | |||||||||
| 06:55 | 10.2 | 13.8 | 85.8 | 1013.7 | 4.2 | WNW | 7.1 | NNW | 0.0 | 352.9 | |||||||||
| 07:00 | 10.2 | 13.8 | 84.9 | 1013.7 | 4.8 | NW | 8.1 | NW | 0.0 | 379.8 | |||||||||
| 07:05 | 10.4 | 14.3 | 86.3 | 1013.8 | 6.9 | NNW | 11.3 | NNW | 0.0 | 411.0 | |||||||||
| 07:10 | 10.2 | 13.3 | 86.4 | 1013.8 | 8.6 | NNW | 13.4 | NNW | 0.0 | 355.2 | |||||||||
| 07:15 | 10.1 | 13.2 | 86.6 | 1013.8 | 8.1 | N | 12.4 | N | 0.0 | 302.0 | |||||||||
| 07:20 | 10.0 | 12.3 | 86.3 | 1013.8 | 7.3 | N | 10.6 | N | 0.0 | 320.7 | |||||||||
| 07:25 | 10.4 | 13.3 | 86.3 | 1013.8 | 4.4 | NNE | 8.1 | N | 0.0 | 451.0 | |||||||||
| 07:30 | 10.7 | 14.5 | 83.1 | 1013.8 | 4.3 | N | 9.5 | N | 0.0 | 490.8 | |||||||||
| 07:35 | 10.9 | 15.2 | 81.9 | 1013.8 | 4.4 | NNE | 7.1 | NNE | 0.0 | 493.5 | |||||||||
| 07:40 | 11.2 | 15.7 | 81.6 | 1013.9 | 5.6 | N | 9.9 | NNW | 0.0 | 508.8 | |||||||||
| 07:45 | 11.1 | 16.2 | 81.9 | 1013.9 | 3.0 | NNE | 6.4 | NNE | 0.0 | 508.4 | |||||||||
| 07:50 | 11.6 | 16.5 | 80.9 | 1014.0 | 2.8 | NNE | 5.6 | NNE | 0.0 | 513.4 | |||||||||
| 07:55 | 11.6 | 17.0 | 79.2 | 1013.9 | 4.2 | N | 7.8 | N | 0.0 | 524.6 | |||||||||
| 08:00 | 11.5 | 17.1 | 79.6 | 1013.9 | 3.5 | N | 6.7 | N | 0.0 | 539.8 | |||||||||
| 08:05 | 11.6 | 17.3 | 81.0 | 1014.0 | 5.3 | NNW | 8.8 | NNW | 0.0 | 552.8 | |||||||||
| 08:10 | 11.5 | 17.2 | 82.1 | 1014.0 | 6.4 | N | 9.5 | NNW | 0.0 | 568.0 | |||||||||
| 08:15 | 11.4 | 17.3 | 82.1 | 1014.0 | 7.0 | NNW | 12.0 | N | 0.0 | 580.5 | |||||||||
| 08:20 | 11.4 | 17.6 | 82.8 | 1014.0 | 7.1 | NNW | 10.9 | NW | 0.0 | 592.9 | |||||||||
| Máxima | 11.6 | 17.6 | 99.3 | 1014.0 | 8.6 | NNW | 13.4 | NNW | 0.0 | 592.9 | |||||||||
| Mínima | 5.6 | 3.7 | 79.2 | 1012.5 | |||||||||||||||
| Total | 0.0 | ||||||||||||||||||